Time,TemperatureF,DewpointF,PressureIn,WindDirection,WindDirectionDegrees,WindSpeedMPH,WindSpeedGustMPH,Humidity,HourlyPrecipIn,Conditions,Clouds,dailyrainin,SoftwareType,DateUTC
2013-06-30 00:09:00,65.1,59.1,29.83,NNE,22,2.2,-999.0,81,-99.99,,,0.00,Acu-Link.com,2013-06-30 05:09:00,
2013-06-30 00:25:00,64.8,59.2,29.84,WNW,292,3.7,-999.0,82,-99.99,,,0.00,Acu-Link.com,2013-06-30 05:25:00,
2013-06-30 00:40:00,64.4,59.1,29.84,NNE,22,5.8,-999.0,83,-99.99,,,0.00,Acu-Link.com,2013-06-30 05:40:00,
2013-06-30 00:55:00,64.0,59.1,29.84,NE,45,0.0,-999.0,84,-99.99,,,0.00,Acu-Link.com,2013-06-30 05:55:00,
2013-06-30 01:10:00,63.9,59.0,29.84,North,0,2.7,-999.0,84,-99.99,,,0.00,Acu-Link.com,2013-06-30 06:10:00,
2013-06-30 01:26:00,64.4,58.8,29.84,NNE,22,2.2,-999.0,82,-99.99,,,0.00,Acu-Link.com,2013-06-30 06:26:00,
2013-06-30 01:41:00,64.8,58.5,29.84,NNE,22,5.3,-999.0,80,-99.99,,,0.00,Acu-Link.com,2013-06-30 06:41:00,
2013-06-30 01:56:00,64.8,58.5,29.84,NE,45,4.7,-999.0,80,-99.99,,,0.00,Acu-Link.com,2013-06-30 06:56:00,
2013-06-30 02:11:00,64.9,57.9,29.85,NE,45,3.2,-999.0,78,-99.99,,,0.00,Acu-Link.com,2013-06-30 07:11:00,
2013-06-30 02:27:00,64.8,58.1,29.85,NNE,22,5.8,-999.0,79,-99.99,,,0.00,Acu-Link.com,2013-06-30 07:27:00,
2013-06-30 02:42:00,64.6,58.3,29.85,East,90,3.7,-999.0,80,-99.99,,,0.00,Acu-Link.com,2013-06-30 07:42:00,
2013-06-30 02:57:00,64.8,58.5,29.85,North,0,4.2,-999.0,80,-99.99,,,0.00,Acu-Link.com,2013-06-30 07:57:00,
2013-06-30 03:13:00,64.4,58.1,29.85,NNW,337,5.3,-999.0,80,-99.99,,,0.00,Acu-Link.com,2013-06-30 08:13:00,
2013-06-30 03:28:00,64.2,58.2,29.85,North,0,4.2,-999.0,81,-99.99,,,0.00,Acu-Link.com,2013-06-30 08:28:00,
2013-06-30 03:44:00,63.9,58.3,29.85,NNE,22,5.3,-999.0,82,-99.99,,,0.00,Acu-Link.com,2013-06-30 08:44:00,
2013-06-30 03:59:00,63.7,58.4,29.85,ENE,67,3.7,-999.0,83,-99.99,,,0.00,Acu-Link.com,2013-06-30 08:59:00,
2013-06-30 04:14:00,63.1,58.2,29.86,ENE,67,3.2,-999.0,84,-99.99,,,0.00,Acu-Link.com,2013-06-30 09:14:00,
2013-06-30 04:29:00,62.2,57.6,29.86,ESE,112,2.2,-999.0,85,-99.99,,,0.00,Acu-Link.com,2013-06-30 09:29:00,
2013-06-30 04:44:00,62.1,57.9,29.87,NNE,22,1.1,-999.0,86,-99.99,,,0.00,Acu-Link.com,2013-06-30 09:44:00,
2013-06-30 04:59:00,62.4,58.2,29.88,NNW,337,2.7,-999.0,86,-99.99,,,0.00,Acu-Link.com,2013-06-30 09:59:00,
2013-06-30 05:15:00,63.0,58.1,29.88,NNE,22,5.8,-999.0,84,-99.99,,,0.00,Acu-Link.com,2013-06-30 10:15:00,
2013-06-30 05:30:00,63.1,57.8,29.89,North,0,2.2,-999.0,83,-99.99,,,0.00,Acu-Link.com,2013-06-30 10:30:00,
2013-06-30 05:45:00,63.1,57.8,29.89,NNE,22,4.2,-999.0,83,-99.99,,,0.00,Acu-Link.com,2013-06-30 10:45:00,
2013-06-30 06:00:00,63.3,58.4,29.89,SSE,157,4.7,-999.0,84,-99.99,,,0.00,Acu-Link.com,2013-06-30 11:00:00,
2013-06-30 06:16:00,63.3,58.4,29.91,NNE,22,3.7,-999.0,84,-99.99,,,0.00,Acu-Link.com,2013-06-30 11:16:00,
2013-06-30 06:31:00,63.5,58.6,29.91,NNW,337,5.3,-999.0,84,-99.99,,,0.00,Acu-Link.com,2013-06-30 11:31:00,
2013-06-30 06:46:00,63.5,58.2,29.91,NNE,22,4.2,-999.0,83,-99.99,,,0.00,Acu-Link.com,2013-06-30 11:46:00,
2013-06-30 07:01:00,64.0,58.7,29.90,NE,45,3.2,-999.0,83,-99.99,,,0.00,Acu-Link.com,2013-06-30 12:01:00,
2013-06-30 07:17:00,64.9,58.6,29.91,East,90,7.8,-999.0,80,-99.99,,,0.00,Acu-Link.com,2013-06-30 12:17:00,
2013-06-30 07:32:00,66.9,58.7,29.91,NNE,22,3.7,-999.0,75,-99.99,,,0.00,Acu-Link.com,2013-06-30 12:32:00,
2013-06-30 07:47:00,68.5,58.3,29.91,NE,45,6.3,-999.0,70,-99.99,,,0.00,Acu-Link.com,2013-06-30 12:47:00,
2013-06-30 08:03:00,68.2,58.0,29.92,ESE,112,6.3,-999.0,70,-99.99,,,0.00,Acu-Link.com,2013-06-30 13:03:00,
2013-06-30 08:18:00,69.1,58.1,29.92,East,90,9.4,-999.0,68,-99.99,,,0.00,Acu-Link.com,2013-06-30 13:18:00,
2013-06-30 08:33:00,67.5,57.8,29.93,ENE,67,9.4,-999.0,71,-99.99,,,0.00,Acu-Link.com,2013-06-30 13:33:00,
2013-06-30 08:48:00,69.8,57.9,29.94,NNE,22,5.8,-999.0,66,-99.99,,,0.00,Acu-Link.com,2013-06-30 13:48:00,
2013-06-30 09:03:00,70.5,57.7,29.95,NE,45,4.7,-999.0,64,-99.99,,,0.00,Acu-Link.com,2013-06-30 14:03:00,
2013-06-30 09:18:00,72.3,58.1,29.94,NNE,22,6.3,-999.0,61,-99.99,,,0.00,Acu-Link.com,2013-06-30 14:18:00,
2013-06-30 09:33:00,70.2,57.4,29.95,NNE,22,6.3,-999.0,64,-99.99,,,0.00,Acu-Link.com,2013-06-30 14:33:00,
2013-06-30 09:49:00,69.8,57.1,29.95,NNE,22,8.3,-999.0,64,-99.99,,,0.00,Acu-Link.com,2013-06-30 14:49:00,
2013-06-30 10:04:00,71.8,57.2,29.95,ENE,67,0.0,-999.0,60,-99.99,,,0.00,Acu-Link.com,2013-06-30 15:04:00,
2013-06-30 10:19:00,73.2,58.0,29.95,East,90,4.7,-999.0,59,-99.99,,,0.00,Acu-Link.com,2013-06-30 15:19:00,
2013-06-30 10:34:00,74.5,58.3,29.95,NNE,22,5.3,-999.0,57,-99.99,,,0.00,Acu-Link.com,2013-06-30 15:34:00,
2013-06-30 10:49:00,75.2,58.4,29.96,NNE,22,0.0,-999.0,56,-99.99,,,0.00,Acu-Link.com,2013-06-30 15:49:00,
2013-06-30 11:04:00,74.7,58.4,29.96,NE,45,7.8,-999.0,57,-99.99,,,0.00,Acu-Link.com,2013-06-30 16:04:00,
2013-06-30 11:19:00,74.8,58.5,29.96,ESE,112,9.4,-999.0,57,-99.99,,,0.00,Acu-Link.com,2013-06-30 16:19:00,
2013-06-30 11:35:00,75.9,58.0,29.96,NNE,22,6.8,-999.0,54,-99.99,,,0.00,Acu-Link.com,2013-06-30 16:35:00,
2013-06-30 11:50:00,76.3,58.4,29.97,ENE,67,4.2,-999.0,54,-99.99,,,0.00,Acu-Link.com,2013-06-30 16:50:00,
2013-06-30 12:05:00,77.5,59.5,29.97,ENE,67,4.7,-999.0,54,-99.99,,,0.00,Acu-Link.com,2013-06-30 17:05:00,
2013-06-30 12:21:00,77.9,59.4,29.97,NNE,22,6.3,-999.0,53,-99.99,,,0.00,Acu-Link.com,2013-06-30 17:21:00,
2013-06-30 12:36:00,78.4,59.8,29.97,NNE,22,4.7,-999.0,53,-99.99,,,0.00,Acu-Link.com,2013-06-30 17:36:00,
2013-06-30 12:51:00,78.8,60.7,29.97,NE,45,2.7,-999.0,54,-99.99,,,0.00,Acu-Link.com,2013-06-30 17:51:00,
2013-06-30 13:06:00,78.8,59.1,29.97,NE,45,4.7,-999.0,51,-99.99,,,0.00,Acu-Link.com,2013-06-30 18:06:00,
2013-06-30 13:21:00,78.1,58.5,29.97,NNE,22,5.8,-999.0,51,-99.99,,,0.00,Acu-Link.com,2013-06-30 18:21:00,
2013-06-30 13:36:00,78.4,59.8,29.96,NE,45,5.8,-999.0,53,-99.99,,,0.00,Acu-Link.com,2013-06-30 18:36:00,
2013-06-30 13:51:00,78.4,59.3,29.97,NNE,22,7.3,-999.0,52,-99.99,,,0.00,Acu-Link.com,2013-06-30 18:51:00,
2013-06-30 14:06:00,78.4,58.8,29.97,ENE,67,2.7,-999.0,51,-99.99,,,0.00,Acu-Link.com,2013-06-30 19:06:00,
2013-06-30 14:21:00,78.4,57.6,29.97,NE,45,0.0,-999.0,49,-99.99,,,0.00,Acu-Link.com,2013-06-30 19:21:00,
2013-06-30 14:37:00,78.3,57.5,29.97,NE,45,3.2,-999.0,49,-99.99,,,0.00,Acu-Link.com,2013-06-30 19:37:00,
2013-06-30 14:52:00,78.8,56.8,29.97,ENE,67,10.9,-999.0,47,-99.99,,,0.00,Acu-Link.com,2013-06-30 19:52:00,
2013-06-30 15:07:00,79.5,58.1,29.97,ENE,67,10.9,-999.0,48,-99.99,,,0.00,Acu-Link.com,2013-06-30 20:07:00,
2013-06-30 15:22:00,79.2,57.8,29.97,NE,45,4.7,-999.0,48,-99.99,,,0.00,Acu-Link.com,2013-06-30 20:22:00,
2013-06-30 15:38:00,80.1,56.8,29.98,ENE,67,10.9,-999.0,45,-99.99,,,0.00,Acu-Link.com,2013-06-30 20:38:00,
2013-06-30 15:53:00,79.7,57.1,29.97,NE,45,5.3,-999.0,46,-99.99,,,0.00,Acu-Link.com,2013-06-30 20:53:00,
2013-06-30 16:08:00,80.2,56.3,29.97,East,90,9.4,-999.0,44,-99.99,,,0.00,Acu-Link.com,2013-06-30 21:08:00,
2013-06-30 16:23:00,81.0,56.4,29.97,NNE,22,8.3,-999.0,43,-99.99,,,0.00,Acu-Link.com,2013-06-30 21:23:00,
2013-06-30 16:39:00,81.0,55.7,29.97,ENE,67,7.3,-999.0,42,-99.99,,,0.00,Acu-Link.com,2013-06-30 21:39:00,
2013-06-30 16:54:00,81.0,55.1,29.97,NNE,22,8.3,-999.0,41,-99.99,,,0.00,Acu-Link.com,2013-06-30 21:54:00,
2013-06-30 17:09:00,80.8,56.8,29.98,East,90,9.9,-999.0,44,-99.99,,,0.00,Acu-Link.com,2013-06-30 22:09:00,
2013-06-30 17:24:00,79.9,57.2,29.98,East,90,7.3,-999.0,46,-99.99,,,0.00,Acu-Link.com,2013-06-30 22:24:00,
2013-06-30 17:39:00,81.0,55.7,29.97,ESE,112,6.8,-999.0,42,-99.99,,,0.00,Acu-Link.com,2013-06-30 22:39:00,
2013-06-30 17:54:00,80.2,55.7,29.98,East,90,6.8,-999.0,43,-99.99,,,0.00,Acu-Link.com,2013-06-30 22:54:00,
2013-06-30 18:10:00,80.2,56.3,29.99,ENE,67,10.4,-999.0,44,-99.99,,,0.00,Acu-Link.com,2013-06-30 23:10:00,
2013-06-30 18:25:00,78.4,55.3,29.99,NE,45,6.3,-999.0,45,-99.99,,,0.00,Acu-Link.com,2013-06-30 23:25:00,
2013-06-30 18:40:00,79.0,55.2,29.99,ENE,67,5.8,-999.0,44,-99.99,,,0.00,Acu-Link.com,2013-06-30 23:40:00,
2013-06-30 18:55:00,78.6,54.8,29.99,NNE,22,8.9,-999.0,44,-99.99,,,0.00,Acu-Link.com,2013-06-30 23:55:00,
2013-06-30 19:11:00,78.3,55.2,30.00,NE,45,5.3,-999.0,45,-99.99,,,0.00,Acu-Link.com,2013-07-01 00:11:00,
2013-06-30 19:26:00,78.1,55.6,30.00,NNE,22,6.3,-999.0,46,-99.99,,,0.00,Acu-Link.com,2013-07-01 00:26:00,
2013-06-30 19:41:00,77.2,55.4,30.00,ENE,67,8.9,-999.0,47,-99.99,,,0.00,Acu-Link.com,2013-07-01 00:41:00,
2013-06-30 19:56:00,76.1,55.5,30.01,NE,45,5.3,-999.0,49,-99.99,,,0.00,Acu-Link.com,2013-07-01 00:56:00,
2013-06-30 20:11:00,74.7,54.3,30.01,NNE,22,2.2,-999.0,49,-99.99,,,0.00,Acu-Link.com,2013-07-01 01:11:00,
2013-06-30 20:27:00,73.6,53.8,30.01,ENE,67,6.8,-999.0,50,-99.99,,,0.00,Acu-Link.com,2013-07-01 01:27:00,
2013-06-30 20:42:00,72.5,54.4,30.01,NNE,22,4.7,-999.0,53,-99.99,,,0.00,Acu-Link.com,2013-07-01 01:42:00,
2013-06-30 20:57:00,71.4,55.4,30.02,NE,45,6.8,-999.0,57,-99.99,,,0.00,Acu-Link.com,2013-07-01 01:57:00,
2013-06-30 21:13:00,70.9,54.9,30.02,NNE,22,6.3,-999.0,57,-99.99,,,0.00,Acu-Link.com,2013-07-01 02:13:00,
2013-06-30 21:28:00,70.2,54.2,30.03,East,90,5.3,-999.0,57,-99.99,,,0.00,Acu-Link.com,2013-07-01 02:28:00,
2013-06-30 21:43:00,70.0,54.5,30.03,NNE,22,3.7,-999.0,58,-99.99,,,0.00,Acu-Link.com,2013-07-01 02:43:00,
2013-06-30 21:58:00,69.1,55.1,30.04,East,90,4.7,-999.0,61,-99.99,,,0.00,Acu-Link.com,2013-07-01 02:58:00,
2013-06-30 22:13:00,68.2,55.1,30.05,East,90,3.7,-999.0,63,-99.99,,,0.00,Acu-Link.com,2013-07-01 03:13:00,
2013-06-30 22:29:00,67.6,55.0,30.04,NE,45,4.2,-999.0,64,-99.99,,,0.00,Acu-Link.com,2013-07-01 03:29:00,
2013-06-30 22:44:00,66.7,55.0,30.05,NNE,22,4.2,-999.0,66,-99.99,,,0.00,Acu-Link.com,2013-07-01 03:44:00,
2013-06-30 22:59:00,66.2,54.9,30.05,NE,45,3.2,-999.0,67,-99.99,,,0.00,Acu-Link.com,2013-07-01 03:59:00,
2013-06-30 23:15:00,66.0,54.3,30.05,NNE,22,4.2,-999.0,66,-99.99,,,0.00,Acu-Link.com,2013-07-01 04:15:00,
2013-06-30 23:30:00,66.0,53.9,30.05,ESE,112,3.2,-999.0,65,-99.99,,,0.00,Acu-Link.com,2013-07-01 04:30:00,
2013-06-30 23:45:00,65.5,53.8,30.06,NE,45,3.7,-999.0,66,-99.99,,,0.00,Acu-Link.com,2013-07-01 04:45:00,